sensor_id;sensor_type;location;lat;lon;timestamp;pressure;altitude;pressure_sealevel;temperature;humidity
40998;BME280;26740;45.944;12.480;2023-02-12T00:00:04;102855.53;;;-0.21;100.00
40998;BME280;26740;45.944;12.480;2023-02-12T00:02:30;102840.66;;;-0.28;100.00
40998;BME280;26740;45.944;12.480;2023-02-12T00:04:56;102841.28;;;-0.25;100.00
40998;BME280;26740;45.944;12.480;2023-02-12T00:07:21;102833.97;;;-0.24;100.00
40998;BME280;26740;45.944;12.480;2023-02-12T00:09:47;102830.22;;;-0.23;100.00
40998;BME280;26740;45.944;12.480;2023-02-12T00:12:12;102833.22;;;-0.26;100.00
40998;BME280;26740;45.944;12.480;2023-02-12T00:14:38;102833.25;;;-0.38;100.00
40998;BME280;26740;45.944;12.480;2023-02-12T00:17:03;102832.91;;;-0.12;100.00
40998;BME280;26740;45.944;12.480;2023-02-12T00:19:29;102825.28;;;-0.29;100.00
40998;BME280;26740;45.944;12.480;2023-02-12T00:21:55;102821.50;;;-0.38;100.00
40998;BME280;26740;45.944;12.480;2023-02-12T00:24:20;102826.25;;;-0.51;100.00
40998;BME280;26740;45.944;12.480;2023-02-12T00:26:46;102825.13;;;-0.49;100.00
40998;BME280;26740;45.944;12.480;2023-02-12T00:29:13;102828.66;;;-0.58;100.00
40998;BME280;26740;45.944;12.480;2023-02-12T00:31:39;102822.38;;;-0.70;100.00
40998;BME280;26740;45.944;12.480;2023-02-12T00:34:04;102822.91;;;-0.87;100.00
40998;BME280;26740;45.944;12.480;2023-02-12T00:36:31;102819.94;;;-0.96;100.00
40998;BME280;26740;45.944;12.480;2023-02-12T00:38:56;102807.53;;;-0.88;100.00
40998;BME280;26740;45.944;12.480;2023-02-12T00:41:22;102808.91;;;-0.83;100.00
40998;BME280;26740;45.944;12.480;2023-02-12T00:43:49;102816.19;;;-0.83;100.00
40998;BME280;26740;45.944;12.480;2023-02-12T00:46:14;102814.13;;;-0.91;100.00
40998;BME280;26740;45.944;12.480;2023-02-12T00:48:40;102808.78;;;-0.81;100.00
40998;BME280;26740;45.944;12.480;2023-02-12T00:51:06;102819.84;;;-0.94;100.00
40998;BME280;26740;45.944;12.480;2023-02-12T00:53:32;102813.28;;;-0.91;100.00
40998;BME280;26740;45.944;12.480;2023-02-12T00:55:58;102801.03;;;-0.65;100.00
40998;BME280;26740;45.944;12.480;2023-02-12T00:58:23;102790.00;;;-0.74;100.00
40998;BME280;26740;45.944;12.480;2023-02-12T01:00:49;102799.09;;;-0.85;100.00
40998;BME280;26740;45.944;12.480;2023-02-12T01:03:15;102806.25;;;-1.05;100.00
40998;BME280;26740;45.944;12.480;2023-02-12T01:05:41;102812.56;;;-1.05;100.00
40998;BME280;26740;45.944;12.480;2023-02-12T01:08:07;102807.25;;;-1.29;100.00
40998;BME280;26740;45.944;12.480;2023-02-12T01:10:33;102819.03;;;-1.28;100.00
40998;BME280;26740;45.944;12.480;2023-02-12T01:12:59;102819.16;;;-1.30;100.00
40998;BME280;26740;45.944;12.480;2023-02-12T01:15:24;102821.75;;;-1.06;100.00
40998;BME280;26740;45.944;12.480;2023-02-12T01:17:51;102826.47;;;-1.19;100.00
40998;BME280;26740;45.944;12.480;2023-02-12T01:20:19;102828.59;;;-1.34;100.00
40998;BME280;26740;45.944;12.480;2023-02-12T01:22:44;102832.56;;;-1.49;100.00
40998;BME280;26740;45.944;12.480;2023-02-12T01:25:10;102830.56;;;-1.47;100.00
40998;BME280;26740;45.944;12.480;2023-02-12T01:27:35;102836.16;;;-1.60;100.00
40998;BME280;26740;45.944;12.480;2023-02-12T01:30:02;102841.22;;;-1.56;100.00
40998;BME280;26740;45.944;12.480;2023-02-12T01:32:28;102843.06;;;-1.56;100.00
40998;BME280;26740;45.944;12.480;2023-02-12T01:34:54;102835.25;;;-1.61;100.00
40998;BME280;26740;45.944;12.480;2023-02-12T01:37:19;102830.06;;;-1.53;100.00
40998;BME280;26740;45.944;12.480;2023-02-12T01:39:45;102816.28;;;-1.17;100.00
40998;BME280;26740;45.944;12.480;2023-02-12T01:42:14;102811.66;;;-0.94;100.00
40998;BME280;26740;45.944;12.480;2023-02-12T01:44:45;102796.97;;;-0.82;100.00
40998;BME280;26740;45.944;12.480;2023-02-12T01:47:29;102794.00;;;-0.79;100.00
40998;BME280;26740;45.944;12.480;2023-02-12T01:49:55;102787.09;;;-0.94;100.00
40998;BME280;26740;45.944;12.480;2023-02-12T01:52:30;102789.75;;;-1.15;100.00
40998;BME280;26740;45.944;12.480;2023-02-12T01:55:02;102791.91;;;-1.30;100.00
40998;BME280;26740;45.944;12.480;2023-02-12T01:57:31;102787.94;;;-1.26;100.00
40998;BME280;26740;45.944;12.480;2023-02-12T02:00:01;102789.81;;;-1.26;100.00
40998;BME280;26740;45.944;12.480;2023-02-12T02:02:27;102792.91;;;-1.31;100.00
40998;BME280;26740;45.944;12.480;2023-02-12T02:04:58;102788.72;;;-1.46;100.00
40998;BME280;26740;45.944;12.480;2023-02-12T02:07:24;102794.66;;;-1.53;100.00
40998;BME280;26740;45.944;12.480;2023-02-12T02:09:50;102779.81;;;-1.60;100.00
40998;BME280;26740;45.944;12.480;2023-02-12T02:12:16;102781.03;;;-1.53;100.00
40998;BME280;26740;45.944;12.480;2023-02-12T02:15:01;102771.00;;;-1.52;100.00
40998;BME280;26740;45.944;12.480;2023-02-12T02:20:29;102780.19;;;-1.76;100.00
40998;BME280;26740;45.944;12.480;2023-02-12T02:28:47;102785.25;;;-1.94;100.00
40998;BME280;26740;45.944;12.480;2023-02-12T02:37:26;102793.16;;;-2.13;100.00
40998;BME280;26740;45.944;12.480;2023-02-12T02:42:58;102789.97;;;-1.84;100.00
40998;BME280;26740;45.944;12.480;2023-02-12T02:45:37;102781.78;;;-1.84;100.00
40998;BME280;26740;45.944;12.480;2023-02-12T02:48:17;102767.31;;;-1.85;100.00
40998;BME280;26740;45.944;12.480;2023-02-12T02:50:50;102768.41;;;-1.87;100.00
40998;BME280;26740;45.944;12.480;2023-02-12T02:53:25;102773.75;;;-1.97;100.00
40998;BME280;26740;45.944;12.480;2023-02-12T02:55:56;102777.44;;;-2.10;100.00
40998;BME280;26740;45.944;12.480;2023-02-12T02:58:31;102769.63;;;-2.14;100.00
40998;BME280;26740;45.944;12.480;2023-02-12T03:01:04;102764.56;;;-2.19;100.00
40998;BME280;26740;45.944;12.480;2023-02-12T03:06:39;102769.50;;;-2.01;100.00
40998;BME280;26740;45.944;12.480;2023-02-12T03:09:18;102759.88;;;-2.17;100.00
40998;BME280;26740;45.944;12.480;2023-02-12T03:11:45;102766.03;;;-2.26;100.00
40998;BME280;26740;45.944;12.480;2023-02-12T03:14:18;102763.44;;;-2.27;100.00
40998;BME280;26740;45.944;12.480;2023-02-12T03:19:29;102768.91;;;-2.05;100.00
40998;BME280;26740;45.944;12.480;2023-02-12T03:22:06;102747.84;;;-2.14;100.00
40998;BME280;26740;45.944;12.480;2023-02-12T03:24:48;102740.81;;;-2.17;100.00
40998;BME280;26740;45.944;12.480;2023-02-12T03:27:36;102745.25;;;-2.16;100.00
40998;BME280;26740;45.944;12.480;2023-02-12T03:30:03;102738.69;;;-2.24;100.00
40998;BME280;26740;45.944;12.480;2023-02-12T03:35:19;102730.03;;;-2.30;100.00
40998;BME280;26740;45.944;12.480;2023-02-12T03:38:00;102740.16;;;-2.43;100.00
40998;BME280;26740;45.944;12.480;2023-02-12T03:40:30;102725.81;;;-2.34;100.00
40998;BME280;26740;45.944;12.480;2023-02-12T03:48:12;102752.00;;;-2.44;100.00
40998;BME280;26740;45.944;12.480;2023-02-12T03:51:16;102755.22;;;-2.50;100.00
40998;BME280;26740;45.944;12.480;2023-02-12T03:53:43;102752.53;;;-2.39;100.00
40998;BME280;26740;45.944;12.480;2023-02-12T03:56:17;102752.75;;;-2.53;100.00
40998;BME280;26740;45.944;12.480;2023-02-12T03:58:44;102747.78;;;-2.59;100.00
40998;BME280;26740;45.944;12.480;2023-02-12T04:01:11;102741.50;;;-2.49;100.00
40998;BME280;26740;45.944;12.480;2023-02-12T04:03:37;102739.47;;;-2.58;100.00
40998;BME280;26740;45.944;12.480;2023-02-12T04:06:03;102739.47;;;-2.58;100.00
40998;BME280;26740;45.944;12.480;2023-02-12T04:08:29;102748.53;;;-2.57;100.00
40998;BME280;26740;45.944;12.480;2023-02-12T04:14:13;102748.41;;;-2.56;100.00
40998;BME280;26740;45.944;12.480;2023-02-12T04:19:41;102757.56;;;-2.57;100.00
40998;BME280;26740;45.944;12.480;2023-02-12T04:22:14;102753.84;;;-2.56;100.00
40998;BME280;26740;45.944;12.480;2023-02-12T04:24:59;102754.19;;;-2.60;100.00
40998;BME280;26740;45.944;12.480;2023-02-12T04:33:03;102751.88;;;-2.54;100.00
40998;BME280;26740;45.944;12.480;2023-02-12T04:35:31;102760.44;;;-2.47;100.00
40998;BME280;26740;45.944;12.480;2023-02-12T04:38:20;102760.09;;;-2.67;100.00
40998;BME280;26740;45.944;12.480;2023-02-12T04:40:48;102763.22;;;-2.60;100.00
40998;BME280;26740;45.944;12.480;2023-02-12T04:43:13;102756.91;;;-2.60;100.00
40998;BME280;26740;45.944;12.480;2023-02-12T04:45:39;102760.38;;;-2.58;100.00
40998;BME280;26740;45.944;12.480;2023-02-12T04:48:05;102766.88;;;-2.72;100.00
40998;BME280;26740;45.944;12.480;2023-02-12T04:50:49;102784.56;;;-2.67;100.00
40998;BME280;26740;45.944;12.480;2023-02-12T04:53:14;102795.41;;;-2.54;100.00
40998;BME280;26740;45.944;12.480;2023-02-12T04:55:40;102796.69;;;-2.71;100.00
40998;BME280;26740;45.944;12.480;2023-02-12T04:58:06;102795.00;;;-2.60;100.00
40998;BME280;26740;45.944;12.480;2023-02-12T05:00:31;102806.19;;;-2.76;100.00
40998;BME280;26740;45.944;12.480;2023-02-12T05:02:57;102807.94;;;-2.75;100.00
40998;BME280;26740;45.944;12.480;2023-02-12T05:05:23;102807.53;;;-2.82;100.00
40998;BME280;26740;45.944;12.480;2023-02-12T05:07:48;102802.31;;;-2.85;100.00
40998;BME280;26740;45.944;12.480;2023-02-12T05:10:14;102792.34;;;-2.73;100.00
40998;BME280;26740;45.944;12.480;2023-02-12T05:12:39;102786.41;;;-2.78;100.00
40998;BME280;26740;45.944;12.480;2023-02-12T05:15:05;102789.47;;;-2.83;100.00
40998;BME280;26740;45.944;12.480;2023-02-12T05:17:31;102784.88;;;-2.82;100.00
40998;BME280;26740;45.944;12.480;2023-02-12T05:19:57;102779.84;;;-2.76;100.00
40998;BME280;26740;45.944;12.480;2023-02-12T05:22:22;102774.28;;;-2.74;100.00
40998;BME280;26740;45.944;12.480;2023-02-12T05:24:48;102778.94;;;-2.88;100.00
40998;BME280;26740;45.944;12.480;2023-02-12T05:27:13;102790.81;;;-2.89;100.00
40998;BME280;26740;45.944;12.480;2023-02-12T05:29:39;102783.94;;;-2.70;100.00
40998;BME280;26740;45.944;12.480;2023-02-12T05:32:05;102777.66;;;-2.71;100.00
40998;BME280;26740;45.944;12.480;2023-02-12T05:34:31;102778.16;;;-2.65;100.00
40998;BME280;26740;45.944;12.480;2023-02-12T05:36:56;102772.22;;;-2.71;100.00
40998;BME280;26740;45.944;12.480;2023-02-12T05:39:22;102780.03;;;-2.66;100.00
40998;BME280;26740;45.944;12.480;2023-02-12T05:41:47;102786.41;;;-2.78;100.00
40998;BME280;26740;45.944;12.480;2023-02-12T05:44:13;102785.91;;;-2.72;100.00
40998;BME280;26740;45.944;12.480;2023-02-12T05:46:39;102803.13;;;-2.72;100.00
40998;BME280;26740;45.944;12.480;2023-02-12T05:49:05;102789.13;;;-2.78;100.00
40998;BME280;26740;45.944;12.480;2023-02-12T05:51:31;102793.34;;;-2.74;100.00
40998;BME280;26740;45.944;12.480;2023-02-12T05:54:00;102807.56;;;-2.95;100.00
40998;BME280;26740;45.944;12.480;2023-02-12T05:56:30;102808.13;;;-3.02;100.00
40998;BME280;26740;45.944;12.480;2023-02-12T05:59:01;102812.69;;;-2.79;100.00
40998;BME280;26740;45.944;12.480;2023-02-12T06:01:31;102813.91;;;-3.07;100.00
40998;BME280;26740;45.944;12.480;2023-02-12T06:04:01;102809.78;;;-3.00;100.00
40998;BME280;26740;45.944;12.480;2023-02-12T06:06:28;102803.72;;;-3.03;100.00
40998;BME280;26740;45.944;12.480;2023-02-12T06:08:54;102809.00;;;-3.02;100.00
40998;BME280;26740;45.944;12.480;2023-02-12T06:11:20;102818.91;;;-3.01;100.00
40998;BME280;26740;45.944;12.480;2023-02-12T06:13:46;102829.81;;;-3.14;100.00
40998;BME280;26740;45.944;12.480;2023-02-12T06:18:41;102811.88;;;-3.16;100.00
40998;BME280;26740;45.944;12.480;2023-02-12T06:21:07;102815.50;;;-3.16;100.00
40998;BME280;26740;45.944;12.480;2023-02-12T06:23:32;102816.41;;;-3.04;100.00
40998;BME280;26740;45.944;12.480;2023-02-12T06:25:58;102808.44;;;-2.94;100.00
40998;BME280;26740;45.944;12.480;2023-02-12T06:28:24;102813.91;;;-2.83;100.00
40998;BME280;26740;45.944;12.480;2023-02-12T06:30:49;102816.53;;;-2.57;100.00
40998;BME280;26740;45.944;12.480;2023-02-12T06:33:15;102827.72;;;-2.38;100.00
40998;BME280;26740;45.944;12.480;2023-02-12T06:35:40;102835.13;;;-2.04;100.00
40998;BME280;26740;45.944;12.480;2023-02-12T06:38:06;102846.56;;;-1.65;100.00
40998;BME280;26740;45.944;12.480;2023-02-12T06:40:32;102847.03;;;-1.26;100.00
40998;BME280;26740;45.944;12.480;2023-02-12T06:42:58;102846.78;;;-0.68;100.00
40998;BME280;26740;45.944;12.480;2023-02-12T06:45:23;102839.94;;;-0.30;100.00
40998;BME280;26740;45.944;12.480;2023-02-12T06:47:49;102848.84;;;0.14;100.00
40998;BME280;26740;45.944;12.480;2023-02-12T06:50:15;102855.94;;;0.78;100.00
40998;BME280;26740;45.944;12.480;2023-02-12T06:52:40;102855.16;;;0.97;100.00
40998;BME280;26740;45.944;12.480;2023-02-12T06:55:06;102850.78;;;0.44;100.00
40998;BME280;26740;45.944;12.480;2023-02-12T06:57:32;102849.28;;;0.40;100.00
40998;BME280;26740;45.944;12.480;2023-02-12T06:59:57;102839.91;;;1.04;100.00
40998;BME280;26740;45.944;12.480;2023-02-12T07:02:23;102837.66;;;1.68;100.00
40998;BME280;26740;45.944;12.480;2023-02-12T07:04:48;102838.66;;;2.43;100.00
40998;BME280;26740;45.944;12.480;2023-02-12T07:07:14;102834.97;;;2.62;100.00
40998;BME280;26740;45.944;12.480;2023-02-12T07:09:39;102827.41;;;3.48;100.00
40998;BME280;26740;45.944;12.480;2023-02-12T07:12:05;102817.63;;;4.15;100.00
40998;BME280;26740;45.944;12.480;2023-02-12T07:14:31;102819.03;;;4.46;100.00
40998;BME280;26740;45.944;12.480;2023-02-12T07:16:56;102810.38;;;5.18;100.00
40998;BME280;26740;45.944;12.480;2023-02-12T07:19:22;102807.00;;;5.98;100.00
40998;BME280;26740;45.944;12.480;2023-02-12T07:21:48;102797.78;;;6.47;100.00
40998;BME280;26740;45.944;12.480;2023-02-12T07:24:14;102813.22;;;6.72;100.00
40998;BME280;26740;45.944;12.480;2023-02-12T07:26:40;102825.59;;;6.20;100.00
40998;BME280;26740;45.944;12.480;2023-02-12T07:29:06;102828.81;;;5.17;100.00
40998;BME280;26740;45.944;12.480;2023-02-12T07:31:32;102841.25;;;4.26;100.00
40998;BME280;26740;45.944;12.480;2023-02-12T07:33:59;102840.78;;;4.31;100.00
40998;BME280;26740;45.944;12.480;2023-02-12T07:36:27;102843.69;;;5.49;100.00
40998;BME280;26740;45.944;12.480;2023-02-12T07:38:54;102859.72;;;5.70;100.00
40998;BME280;26740;45.944;12.480;2023-02-12T07:41:22;102862.09;;;5.40;100.00
40998;BME280;26740;45.944;12.480;2023-02-12T07:43:52;102847.66;;;6.93;100.00
40998;BME280;26740;45.944;12.480;2023-02-12T07:46:28;102861.44;;;6.53;100.00
40998;BME280;26740;45.944;12.480;2023-02-12T07:48:55;102858.03;;;6.10;100.00
40998;BME280;26740;45.944;12.480;2023-02-12T07:51:22;102863.69;;;7.29;100.00
40998;BME280;26740;45.944;12.480;2023-02-12T07:53:48;102862.00;;;8.20;88.78
40998;BME280;26740;45.944;12.480;2023-02-12T07:56:19;102868.03;;;8.62;85.80
40998;BME280;26740;45.944;12.480;2023-02-12T07:58:46;102872.38;;;10.32;68.52
40998;BME280;26740;45.944;12.480;2023-02-12T08:01:27;102878.84;;;9.96;69.71
40998;BME280;26740;45.944;12.480;2023-02-12T08:03:57;102875.19;;;7.95;82.70
40998;BME280;26740;45.944;12.480;2023-02-12T08:06:25;102887.88;;;9.10;75.17
40998;BME280;26740;45.944;12.480;2023-02-12T08:08:55;102870.75;;;11.14;68.50
40998;BME280;26740;45.944;12.480;2023-02-12T08:11:21;102878.09;;;12.30;58.65
40998;BME280;26740;45.944;12.480;2023-02-12T08:13:47;102881.31;;;12.40;60.20
40998;BME280;26740;45.944;12.480;2023-02-12T08:16:18;102873.38;;;12.57;59.23
40998;BME280;26740;45.944;12.480;2023-02-12T08:18:44;102887.31;;;10.87;64.07
40998;BME280;26740;45.944;12.480;2023-02-12T08:21:16;102893.06;;;11.27;62.21
40998;BME280;26740;45.944;12.480;2023-02-12T08:23:42;102894.31;;;11.80;60.43
40998;BME280;26740;45.944;12.480;2023-02-12T08:28:34;102906.59;;;13.57;57.10
40998;BME280;26740;45.944;12.480;2023-02-12T08:31:02;102906.13;;;15.00;50.40
40998;BME280;26740;45.944;12.480;2023-02-12T08:33:28;102910.97;;;16.08;47.51
40998;BME280;26740;45.944;12.480;2023-02-12T08:36:23;102906.69;;;16.72;45.85
40998;BME280;26740;45.944;12.480;2023-02-12T08:38:49;102918.75;;;17.31;43.94
40998;BME280;26740;45.944;12.480;2023-02-12T08:41:20;102923.94;;;17.51;40.49
40998;BME280;26740;45.944;12.480;2023-02-12T08:43:46;102906.72;;;16.95;41.89
40998;BME280;26740;45.944;12.480;2023-02-12T08:46:18;102908.25;;;17.27;40.41
40998;BME280;26740;45.944;12.480;2023-02-12T08:48:43;102913.16;;;17.60;40.78
40998;BME280;26740;45.944;12.480;2023-02-12T08:51:12;102918.47;;;17.73;38.88
40998;BME280;26740;45.944;12.480;2023-02-12T08:53:39;102922.56;;;17.54;37.60
40998;BME280;26740;45.944;12.480;2023-02-12T08:56:06;102917.75;;;17.37;36.97
40998;BME280;26740;45.944;12.480;2023-02-12T08:58:32;102931.44;;;17.22;36.50
40998;BME280;26740;45.944;12.480;2023-02-12T09:00:58;102932.16;;;17.70;36.30
40998;BME280;26740;45.944;12.480;2023-02-12T09:03:23;102945.59;;;18.08;35.79
40998;BME280;26740;45.944;12.480;2023-02-12T09:05:49;102950.72;;;18.91;32.59
40998;BME280;26740;45.944;12.480;2023-02-12T09:08:15;102954.94;;;18.26;30.55
40998;BME280;26740;45.944;12.480;2023-02-12T09:10:41;102948.66;;;18.86;28.45
40998;BME280;26740;45.944;12.480;2023-02-12T09:13:11;102948.81;;;14.70;39.68
40998;BME280;26740;45.944;12.480;2023-02-12T09:15:38;102947.19;;;15.80;39.94
40998;BME280;26740;45.944;12.480;2023-02-12T09:18:04;102960.63;;;17.21;36.97
40998;BME280;26740;45.944;12.480;2023-02-12T09:20:31;102971.13;;;16.90;36.42
40998;BME280;26740;45.944;12.480;2023-02-12T09:22:58;102968.13;;;16.38;38.91
40998;BME280;26740;45.944;12.480;2023-02-12T09:25:23;102964.31;;;16.02;36.45
40998;BME280;26740;45.944;12.480;2023-02-12T09:27:49;102964.59;;;15.08;40.47
40998;BME280;26740;45.944;12.480;2023-02-12T09:30:15;102976.94;;;14.75;37.18
40998;BME280;26740;45.944;12.480;2023-02-12T09:32:40;102962.44;;;15.28;38.01
40998;BME280;26740;45.944;12.480;2023-02-12T09:35:06;102961.59;;;14.27;39.64
40998;BME280;26740;45.944;12.480;2023-02-12T09:37:31;102982.00;;;16.98;39.33
40998;BME280;26740;45.944;12.480;2023-02-12T09:39:57;102979.91;;;17.05;38.48
40998;BME280;26740;45.944;12.480;2023-02-12T09:42:43;102975.94;;;15.68;35.20
40998;BME280;26740;45.944;12.480;2023-02-12T09:45:22;102975.75;;;14.64;37.77
40998;BME280;26740;45.944;12.480;2023-02-12T09:50:47;102994.16;;;16.26;37.14
40998;BME280;26740;45.944;12.480;2023-02-12T09:53:18;102990.63;;;16.73;33.44
40998;BME280;26740;45.944;12.480;2023-02-12T09:55:46;102998.38;;;16.17;33.50
40998;BME280;26740;45.944;12.480;2023-02-12T09:58:15;103002.09;;;15.81;38.07
40998;BME280;26740;45.944;12.480;2023-02-12T10:00:42;103010.81;;;14.67;34.36
40998;BME280;26740;45.944;12.480;2023-02-12T10:03:14;103019.00;;;14.87;35.05
40998;BME280;26740;45.944;12.480;2023-02-12T10:06:02;103016.31;;;15.24;36.43
40998;BME280;26740;45.944;12.480;2023-02-12T10:17:35;102996.84;;;19.24;30.74
40998;BME280;26740;45.944;12.480;2023-02-12T10:22:56;103003.38;;;18.45;32.03
40998;BME280;26740;45.944;12.480;2023-02-12T10:28:16;103011.00;;;19.29;28.82
40998;BME280;26740;45.944;12.480;2023-02-12T10:30:47;103022.50;;;18.76;28.51
40998;BME280;26740;45.944;12.480;2023-02-12T10:36:02;103020.47;;;19.23;28.93
40998;BME280;26740;45.944;12.480;2023-02-12T10:38:34;103012.72;;;19.91;27.31
40998;BME280;26740;45.944;12.480;2023-02-12T10:41:00;103015.66;;;21.20;27.76
40998;BME280;26740;45.944;12.480;2023-02-12T10:43:27;103011.19;;;20.05;27.04
40998;BME280;26740;45.944;12.480;2023-02-12T10:45:53;103005.88;;;21.38;28.10
40998;BME280;26740;45.944;12.480;2023-02-12T10:48:22;103009.88;;;21.95;26.60
40998;BME280;26740;45.944;12.480;2023-02-12T10:53:35;103013.06;;;19.17;26.46
40998;BME280;26740;45.944;12.480;2023-02-12T10:58:38;103006.34;;;20.82;26.93
40998;BME280;26740;45.944;12.480;2023-02-12T11:01:14;103000.72;;;18.84;27.04
40998;BME280;26740;45.944;12.480;2023-02-12T11:03:41;103005.16;;;18.05;29.24
40998;BME280;26740;45.944;12.480;2023-02-12T11:06:11;103014.38;;;18.17;31.11
40998;BME280;26740;45.944;12.480;2023-02-12T11:08:38;103007.69;;;17.66;30.28
40998;BME280;26740;45.944;12.480;2023-02-12T11:11:18;103003.78;;;17.55;30.06
40998;BME280;26740;45.944;12.480;2023-02-12T11:14:17;103006.69;;;19.04;28.22
40998;BME280;26740;45.944;12.480;2023-02-12T11:17:12;102996.72;;;18.51;32.75
40998;BME280;26740;45.944;12.480;2023-02-12T11:19:40;103003.22;;;18.51;29.30
40998;BME280;26740;45.944;12.480;2023-02-12T11:22:09;103000.97;;;18.36;30.97
40998;BME280;26740;45.944;12.480;2023-02-12T11:24:36;103000.00;;;18.93;28.78
40998;BME280;26740;45.944;12.480;2023-02-12T11:29:41;102992.75;;;18.64;29.58
40998;BME280;26740;45.944;12.480;2023-02-12T11:32:15;102995.72;;;17.71;28.90
40998;BME280;26740;45.944;12.480;2023-02-12T11:34:41;102990.59;;;17.56;30.10
40998;BME280;26740;45.944;12.480;2023-02-12T11:37:16;102995.06;;;17.16;29.42
40998;BME280;26740;45.944;12.480;2023-02-12T11:39:46;102999.41;;;16.77;30.40
40998;BME280;26740;45.944;12.480;2023-02-12T11:42:24;102999.56;;;16.52;30.94
40998;BME280;26740;45.944;12.480;2023-02-12T11:44:57;102997.88;;;15.90;29.75
40998;BME280;26740;45.944;12.480;2023-02-12T11:50:21;102999.06;;;16.85;33.45
40998;BME280;26740;45.944;12.480;2023-02-12T11:52:50;102999.16;;;16.78;31.53
40998;BME280;26740;45.944;12.480;2023-02-12T11:55:28;102996.00;;;16.86;30.25
40998;BME280;26740;45.944;12.480;2023-02-12T11:58:15;102993.56;;;16.90;29.35
40998;BME280;26740;45.944;12.480;2023-02-12T12:06:35;102992.22;;;16.39;25.93
40998;BME280;26740;45.944;12.480;2023-02-12T12:09:29;102986.31;;;16.71;28.91
40998;BME280;26740;45.944;12.480;2023-02-12T12:20:31;102987.56;;;15.90;29.60
40998;BME280;26740;45.944;12.480;2023-02-12T12:23:15;102989.94;;;15.68;30.42
40998;BME280;26740;45.944;12.480;2023-02-12T12:25:49;102989.75;;;16.30;28.32
40998;BME280;26740;45.944;12.480;2023-02-12T12:28:24;102991.59;;;15.95;29.99
40998;BME280;26740;45.944;12.480;2023-02-12T12:31:15;102981.97;;;16.02;30.29
40998;BME280;26740;45.944;12.480;2023-02-12T12:36:29;102985.63;;;16.87;27.64
40998;BME280;26740;45.944;12.480;2023-02-12T12:47:35;102979.34;;;15.70;31.12
40998;BME280;26740;45.944;12.480;2023-02-12T13:04:09;102987.81;;;16.73;28.64
40998;BME280;26740;45.944;12.480;2023-02-12T13:15:36;102989.88;;;16.78;27.26
40998;BME280;26740;45.944;12.480;2023-02-12T13:26:32;102991.50;;;16.85;27.82
40998;BME280;26740;45.944;12.480;2023-02-12T13:32:04;103000.97;;;16.73;27.03
40998;BME280;26740;45.944;12.480;2023-02-12T13:34:33;102988.28;;;16.70;27.81
40998;BME280;26740;45.944;12.480;2023-02-12T13:37:02;102991.66;;;16.60;26.02
40998;BME280;26740;45.944;12.480;2023-02-12T13:39:35;102993.34;;;16.49;26.36
40998;BME280;26740;45.944;12.480;2023-02-12T13:44:57;102995.59;;;16.59;27.77
40998;BME280;26740;45.944;12.480;2023-02-12T13:47:42;102991.38;;;16.38;27.11
40998;BME280;26740;45.944;12.480;2023-02-12T13:50:36;102989.66;;;16.25;26.81
40998;BME280;26740;45.944;12.480;2023-02-12T13:55:37;102992.97;;;16.34;26.81
40998;BME280;26740;45.944;12.480;2023-02-12T14:03:12;103001.84;;;16.01;27.65
40998;BME280;26740;45.944;12.480;2023-02-12T14:05:39;102997.94;;;16.02;28.67
40998;BME280;26740;45.944;12.480;2023-02-12T14:08:05;103004.59;;;15.89;27.32
40998;BME280;26740;45.944;12.480;2023-02-12T14:11:06;103001.31;;;15.92;27.81
40998;BME280;26740;45.944;12.480;2023-02-12T14:13:36;103000.88;;;15.77;27.07
40998;BME280;26740;45.944;12.480;2023-02-12T14:21:57;102998.31;;;15.75;27.88
40998;BME280;26740;45.944;12.480;2023-02-12T14:24:47;103005.09;;;15.42;27.59
40998;BME280;26740;45.944;12.480;2023-02-12T14:27:29;102998.81;;;15.47;29.31
40998;BME280;26740;45.944;12.480;2023-02-12T14:35:41;102998.56;;;15.30;29.66
40998;BME280;26740;45.944;12.480;2023-02-12T14:43:40;103007.34;;;15.15;29.83
40998;BME280;26740;45.944;12.480;2023-02-12T14:48:53;102998.94;;;14.96;31.27
40998;BME280;26740;45.944;12.480;2023-02-12T14:51:50;102993.22;;;14.59;31.65
40998;BME280;26740;45.944;12.480;2023-02-12T14:54:29;103000.63;;;14.40;31.26
40998;BME280;26740;45.944;12.480;2023-02-12T14:56:58;103004.41;;;14.21;31.28
40998;BME280;26740;45.944;12.480;2023-02-12T14:59:26;103007.88;;;14.16;32.05
40998;BME280;26740;45.944;12.480;2023-02-12T15:01:58;103006.63;;;14.12;31.73
40998;BME280;26740;45.944;12.480;2023-02-12T15:04:31;103013.28;;;14.04;33.09
40998;BME280;26740;45.944;12.480;2023-02-12T15:07:09;103023.44;;;13.99;33.05
40998;BME280;26740;45.944;12.480;2023-02-12T15:09:52;103014.09;;;13.73;33.64
40998;BME280;26740;45.944;12.480;2023-02-12T15:12:28;103007.06;;;13.57;34.40
40998;BME280;26740;45.944;12.480;2023-02-12T15:15:20;103017.34;;;13.63;35.01
40998;BME280;26740;45.944;12.480;2023-02-12T15:18:13;103013.50;;;13.58;35.88
40998;BME280;26740;45.944;12.480;2023-02-12T15:20:49;103024.25;;;13.54;36.43
40998;BME280;26740;45.944;12.480;2023-02-12T15:26:02;103017.22;;;13.32;37.07
40998;BME280;26740;45.944;12.480;2023-02-12T15:28:30;103015.06;;;13.20;37.49
40998;BME280;26740;45.944;12.480;2023-02-12T15:30:59;103014.44;;;13.05;38.03
40998;BME280;26740;45.944;12.480;2023-02-12T15:33:31;103019.38;;;13.03;37.46
40998;BME280;26740;45.944;12.480;2023-02-12T15:35:58;103022.59;;;12.86;38.07
40998;BME280;26740;45.944;12.480;2023-02-12T15:38:35;103015.53;;;12.77;39.36
40998;BME280;26740;45.944;12.480;2023-02-12T15:41:01;103019.38;;;12.69;39.31